Time;durP1;ratioP1;P1;durP2;ratioP2;P2;SDS_P1;SDS_P2;PMS_P1;PMS_P2;Temp;Humidity;BMP_temperature;BMP_pressure;BME280_temperature;BME280_humidity;BME280_pressure;Samples;Min_cycle;Max_cycle;Signal;HPM_P1;HPM_P2
2023/06/03 00:00:17;;;;;;;54.33;8.20;;;21.10;52.20;;;;;;5006372;28;20225;-87
2023/06/03 00:02:44;;;;;;;42.50;7.60;;;21.00;52.10;;;;;;5008936;28;20218;-87
2023/06/03 00:05:11;;;;;;;27.77;5.90;;;21.00;52.20;;;;;;5009692;28;20209;-88
2023/06/03 00:07:38;;;;;;;39.63;7.13;;;21.00;52.10;;;;;;5007034;28;20205;-87
2023/06/03 00:10:05;;;;;;;32.90;6.50;;;21.00;52.20;;;;;;5009406;28;20214;-89
2023/06/03 00:12:32;;;;;;;32.73;6.50;;;21.00;52.20;;;;;;5009185;28;20211;-88
2023/06/03 00:15:00;;;;;;;33.77;6.43;;;21.00;52.40;;;;;;5007368;28;20208;-88
2023/06/03 00:17:28;;;;;;;36.40;6.73;;;21.00;52.80;;;;;;5008458;28;20209;-87
2023/06/03 00:19:55;;;;;;;26.27;6.17;;;21.00;52.20;;;;;;5008073;28;20673;-87
2023/06/03 00:22:23;;;;;;;26.90;5.80;;;20.90;52.20;;;;;;5009432;28;20243;-87
2023/06/03 00:24:50;;;;;;;31.53;6.47;;;20.90;52.10;;;;;;5005747;28;20205;-87
2023/06/03 00:27:17;;;;;;;37.60;6.70;;;20.90;52.20;;;;;;5008178;28;20209;-87
2023/06/03 00:29:44;;;;;;;54.40;8.10;;;20.90;52.20;;;;;;5005584;28;20216;-88
2023/06/03 00:32:12;;;;;;;29.93;6.33;;;20.90;52.20;;;;;;5009214;28;20620;-86
2023/06/03 00:34:39;;;;;;;28.37;6.33;;;20.90;52.20;;;;;;5008123;28;20215;-87
2023/06/03 00:37:06;;;;;;;40.10;7.03;;;20.90;52.20;;;;;;5021030;28;20236;-87
2023/06/03 00:39:33;;;;;;;33.07;6.57;;;20.90;52.20;;;;;;5021847;28;20254;-89
2023/06/03 00:42:00;;;;;;;42.33;6.77;;;20.80;52.20;;;;;;5012074;28;20673;-87
2023/06/03 00:44:27;;;;;;;30.87;6.67;;;20.80;52.20;;;;;;5005312;28;20209;-87
2023/06/03 00:46:54;;;;;;;25.10;5.73;;;20.80;52.20;;;;;;5009092;28;20228;-86
2023/06/03 00:49:22;;;;;;;21.67;5.93;;;20.80;52.20;;;;;;5010105;28;20206;-87
2023/06/03 00:51:49;;;;;;;24.93;5.90;;;20.80;52.20;;;;;;5009987;28;20207;-86
2023/06/03 00:54:17;;;;;;;29.00;6.17;;;20.80;52.20;;;;;;5008534;28;20200;-86
2023/06/03 00:56:45;;;;;;;29.40;6.20;;;20.80;52.20;;;;;;5009702;28;20212;-87
2023/06/03 00:59:15;;;;;;;30.37;6.33;;;20.80;52.30;;;;;;5008275;28;20213;-88
2023/06/03 01:01:43;;;;;;;46.33;7.73;;;20.80;52.20;;;;;;5006533;28;20341;-86
2023/06/03 01:04:10;;;;;;;26.40;6.50;;;20.80;52.30;;;;;;5007853;28;20198;-86
2023/06/03 01:06:51;;;;;;;30.00;5.70;;;20.80;52.20;;;;;;5007272;28;20894;-86
2023/06/03 01:09:28;;;;;;;30.27;6.90;;;20.70;52.20;;;;;;5005067;28;20199;-87
2023/06/03 01:12:07;;;;;;;27.33;6.03;;;20.70;52.20;;;;;;4999487;28;20204;-89
2023/06/03 01:14:41;;;;;;;25.53;5.67;;;20.70;52.20;;;;;;5008218;28;20207;-87
2023/06/03 01:17:10;;;;;;;45.30;7.67;;;20.70;52.20;;;;;;5006249;28;20219;-86
2023/06/03 01:19:47;;;;;;;52.77;8.90;;;20.70;52.20;;;;;;5004437;28;20205;-87
2023/06/03 01:22:16;;;;;;;28.57;6.23;;;20.70;52.30;;;;;;5004835;28;20656;-86
2023/06/03 01:24:45;;;;;;;30.90;6.47;;;20.70;52.30;;;;;;5007122;28;20214;-85
2023/06/03 01:27:12;;;;;;;33.13;6.97;;;20.60;52.20;;;;;;5008211;28;20218;-86
2023/06/03 01:29:42;;;;;;;30.17;6.90;;;20.70;52.30;;;;;;5008769;28;20238;-87
2023/06/03 01:32:12;;;;;;;34.13;6.63;;;20.70;52.30;;;;;;5002621;28;20205;-87
2023/06/03 01:34:40;;;;;;;56.17;8.10;;;20.70;52.30;;;;;;5002080;28;20201;-86
2023/06/03 01:37:09;;;;;;;66.40;9.63;;;20.60;52.80;;;;;;5001812;28;20211;-86
2023/06/03 01:39:39;;;;;;;26.50;6.13;;;20.60;52.30;;;;;;5006663;28;20197;-87
2023/06/03 01:42:09;;;;;;;34.20;7.10;;;20.60;52.20;;;;;;5007986;28;20236;-87
2023/06/03 01:44:36;;;;;;;41.07;7.53;;;20.60;52.20;;;;;;5008119;28;20214;-87
2023/06/03 01:47:04;;;;;;;36.23;7.23;;;20.60;52.30;;;;;;5007967;28;20209;-86
2023/06/03 01:49:31;;;;;;;31.73;6.97;;;20.60;52.30;;;;;;5008893;28;20220;-90
2023/06/03 01:51:58;;;;;;;24.23;5.67;;;20.50;52.10;;;;;;5008982;28;20210;-87
2023/06/03 01:54:26;;;;;;;25.33;5.90;;;20.50;52.20;;;;;;5008440;28;20212;-86
2023/06/03 01:56:53;;;;;;;32.43;6.93;;;20.50;52.20;;;;;;5008669;28;20208;-88
2023/06/03 01:59:23;;;;;;;37.83;7.50;;;20.60;52.30;;;;;;5008291;28;20678;-88
2023/06/03 02:01:50;;;;;;;28.93;6.23;;;20.50;52.20;;;;;;5009377;28;20876;-92
2023/06/03 02:04:17;;;;;;;31.60;6.77;;;20.50;52.30;;;;;;5009520;28;20202;-87
2023/06/03 02:06:49;;;;;;;24.90;6.30;;;20.50;52.20;;;;;;5008446;28;20205;-87
2023/06/03 02:09:16;;;;;;;35.30;6.97;;;20.50;52.20;;;;;;5007470;28;20209;-89
2023/06/03 02:11:43;;;;;;;26.67;6.40;;;20.50;52.30;;;;;;5008588;28;20193;-91
2023/06/03 02:14:12;;;;;;;27.43;6.37;;;20.50;52.30;;;;;;5009076;28;20213;-89
2023/06/03 02:16:41;;;;;;;47.10;8.27;;;20.40;52.20;;;;;;5004844;28;20221;-87
2023/06/03 02:19:12;;;;;;;24.97;5.83;;;20.50;52.30;;;;;;5008192;28;20213;-87
2023/06/03 02:21:40;;;;;;;23.83;6.13;;;20.50;52.20;;;;;;5007929;28;20225;-87
2023/06/03 02:24:08;;;;;;;31.20;6.93;;;20.50;52.30;;;;;;5008549;28;20210;-86
2023/06/03 02:26:36;;;;;;;24.00;6.10;;;20.40;52.20;;;;;;5007971;28;20228;-86
2023/06/03 02:29:03;;;;;;;25.07;6.33;;;20.40;52.20;;;;;;5010299;28;20190;-88
2023/06/03 02:31:30;;;;;;;30.13;6.70;;;20.40;52.20;;;;;;5012490;28;20207;-87
2023/06/03 02:33:59;;;;;;;29.07;6.50;;;20.40;52.20;;;;;;5011801;28;20213;-87
2023/06/03 02:36:26;;;;;;;26.43;6.80;;;20.40;52.20;;;;;;5011959;28;20292;-87
2023/06/03 02:38:53;;;;;;;30.73;6.83;;;20.40;52.20;;;;;;5008658;28;20201;-87
2023/06/03 02:41:19;;;;;;;30.50;6.37;;;20.40;52.20;;;;;;5011659;28;20200;-87
2023/06/03 02:43:46;;;;;;;20.23;6.23;;;20.40;52.20;;;;;;5010153;28;20669;-86
2023/06/03 02:46:13;;;;;;;25.33;6.13;;;20.40;52.30;;;;;;5010709;28;20559;-88
2023/06/03 02:48:40;;;;;;;25.50;6.30;;;20.30;52.20;;;;;;5011953;28;20196;-87
2023/06/03 02:51:08;;;;;;;31.13;7.17;;;20.30;52.20;;;;;;5011552;28;20638;-87
2023/06/03 02:53:35;;;;;;;30.20;6.40;;;20.30;52.20;;;;;;5011358;28;20236;-87
2023/06/03 02:56:02;;;;;;;26.20;6.47;;;20.30;52.20;;;;;;5012097;28;20201;-87
2023/06/03 02:58:29;;;;;;;30.73;6.90;;;20.30;52.20;;;;;;5011163;28;20216;-86
2023/06/03 03:00:57;;;;;;;22.13;5.73;;;20.30;52.20;;;;;;5011726;28;20211;-87
2023/06/03 03:03:25;;;;;;;36.20;7.40;;;20.30;52.20;;;;;;5010438;28;20233;-90
2023/06/03 03:05:54;;;;;;;38.33;7.67;;;20.30;52.20;;;;;;5010780;28;20268;-86
2023/06/03 03:08:23;;;;;;;44.37;7.50;;;20.30;52.80;;;;;;5009715;28;20205;-87
2023/06/03 03:10:50;;;;;;;32.37;7.03;;;20.30;52.20;;;;;;5008533;28;20202;-88
2023/06/03 03:13:17;;;;;;;32.73;6.80;;;20.20;52.10;;;;;;5010193;28;20673;-86
2023/06/03 03:15:47;;;;;;;25.10;6.63;;;20.20;52.10;;;;;;5011108;28;20578;-89
2023/06/03 03:18:15;;;;;;;18.33;5.33;;;20.20;52.20;;;;;;5008880;28;20220;-87
2023/06/03 03:20:42;;;;;;;34.50;6.80;;;20.20;52.20;;;;;;5009936;28;20683;-90
2023/06/03 03:23:12;;;;;;;30.93;6.70;;;20.20;52.20;;;;;;5009677;28;20229;-87
2023/06/03 03:25:40;;;;;;;29.57;6.60;;;20.20;52.20;;;;;;5008477;28;20201;-87
2023/06/03 03:28:08;;;;;;;24.23;6.23;;;20.20;52.10;;;;;;5010988;28;20206;-87
2023/06/03 03:30:37;;;;;;;24.80;6.27;;;20.20;52.20;;;;;;5010938;28;20200;-89
2023/06/03 03:33:04;;;;;;;30.43;6.67;;;20.20;52.20;;;;;;5010717;28;20304;-87
2023/06/03 03:35:32;;;;;;;29.23;6.73;;;20.20;52.20;;;;;;5010959;28;20225;-87
2023/06/03 03:38:02;;;;;;;27.07;6.40;;;20.10;52.10;;;;;;5010356;28;20210;-86
2023/06/03 03:40:31;;;;;;;28.63;6.80;;;20.10;52.20;;;;;;5010760;28;20193;-87
2023/06/03 03:42:59;;;;;;;26.70;6.67;;;20.10;52.10;;;;;;5010463;28;20221;-86
2023/06/03 03:45:30;;;;;;;26.40;5.90;;;20.10;52.10;;;;;;5008040;28;20210;-88
2023/06/03 03:48:02;;;;;;;32.37;7.23;;;20.10;52.10;;;;;;5009956;28;20209;-87
2023/06/03 03:50:40;;;;;;;26.13;6.53;;;20.10;52.10;;;;;;5010591;28;20217;-87
2023/06/03 03:53:10;;;;;;;39.27;7.93;;;20.10;52.20;;;;;;5009132;28;20197;-87
2023/06/03 03:55:42;;;;;;;25.73;6.33;;;20.10;52.10;;;;;;5009344;28;20216;-86
2023/06/03 03:58:23;;;;;;;36.20;7.30;;;20.10;52.10;;;;;;5008424;28;20656;-88
2023/06/03 04:00:51;;;;;;;29.43;6.87;;;20.00;52.10;;;;;;5009258;28;20232;-89
2023/06/03 04:03:19;;;;;;;32.43;7.07;;;20.00;52.10;;;;;;5007555;28;20221;-86
2023/06/03 04:05:48;;;;;;;29.73;6.80;;;20.00;52.10;;;;;;5009679;28;20221;-91
2023/06/03 04:08:36;;;;;;;23.13;5.73;;;20.00;52.10;;;;;;5009664;28;20308;-87
2023/06/03 04:11:04;;;;;;;27.23;6.50;;;20.00;52.70;;;;;;5022017;28;20193;-87
2023/06/03 04:13:36;;;;;;;28.10;6.70;;;20.00;52.10;;;;;;5031667;28;20213;-89
2023/06/03 04:16:08;;;;;;;35.67;6.93;;;20.00;52.10;;;;;;5021162;28;20213;-96
2023/06/03 04:18:40;;;;;;;18.43;5.50;;;20.00;52.10;;;;;;5018189;28;20212;-93
2023/06/03 04:21:07;;;;;;;18.53;5.93;;;19.90;52.00;;;;;;5016280;28;20267;-93
2023/06/03 04:23:35;;;;;;;28.20;6.80;;;19.90;52.00;;;;;;5013690;28;20237;-88
2023/06/03 04:26:03;;;;;;;17.60;5.87;;;19.90;52.00;;;;;;5014149;28;20321;-87
2023/06/03 04:28:30;;;;;;;26.63;6.77;;;19.90;52.70;;;;;;5012073;28;20201;-88
2023/06/03 04:30:58;;;;;;;27.10;6.40;;;19.90;52.10;;;;;;5009700;28;20206;-86
2023/06/03 04:33:26;;;;;;;24.87;6.47;;;19.90;52.10;;;;;;5010240;28;20205;-92
2023/06/03 04:35:53;;;;;;;28.00;6.83;;;19.90;52.10;;;;;;5010183;28;20285;-90
2023/06/03 04:38:20;;;;;;;24.93;6.43;;;19.90;52.80;;;;;;5011002;28;20284;-86
2023/06/03 04:40:48;;;;;;;21.07;5.53;;;19.90;52.20;;;;;;5010383;28;20217;-88
2023/06/03 04:43:18;;;;;;;28.23;6.23;;;19.90;52.20;;;;;;5008629;28;20229;-92
2023/06/03 04:45:45;;;;;;;16.97;5.93;;;19.80;52.20;;;;;;5009575;28;20228;-86
2023/06/03 04:48:14;;;;;;;34.80;7.43;;;19.80;52.20;;;;;;5016944;28;20194;-86
2023/06/03 04:50:44;;;;;;;26.10;6.50;;;19.90;52.30;;;;;;5008432;28;20202;-86
2023/06/03 04:53:11;;;;;;;34.10;6.83;;;19.80;52.20;;;;;;5006618;28;20537;-86
2023/06/03 04:55:42;;;;;;;27.97;6.97;;;19.80;52.20;;;;;;5008606;28;20209;-85
2023/06/03 04:58:09;;;;;;;25.90;6.50;;;19.80;52.30;;;;;;5007710;28;20284;-95
2023/06/03 05:00:36;;;;;;;78.60;10.30;;;19.80;52.30;;;;;;5003635;28;20201;-95
2023/06/03 05:03:08;;;;;;;39.87;7.33;;;19.80;52.30;;;;;;5006014;28;20628;-95
2023/06/03 05:05:42;;;;;;;19.37;6.33;;;19.80;52.40;;;;;;5013111;28;20204;-94
2023/06/03 05:08:10;;;;;;;26.20;6.40;;;19.70;52.30;;;;;;5011583;28;20208;-96
2023/06/03 05:10:37;;;;;;;32.93;7.13;;;19.80;52.40;;;;;;5012720;28;20209;-92
2023/06/03 05:13:05;;;;;;;29.63;7.50;;;19.80;52.40;;;;;;5016346;28;20677;-95
2023/06/03 05:15:33;;;;;;;49.53;8.63;;;19.80;52.40;;;;;;5011488;28;20216;-89
2023/06/03 05:18:02;;;;;;;60.93;9.53;;;19.80;52.40;;;;;;5014358;28;20302;-93
2023/06/03 05:20:29;;;;;;;50.20;8.37;;;19.70;52.40;;;;;;5009265;28;20209;-91
2023/06/03 05:22:58;;;;;;;34.77;9.63;;;19.80;52.50;;;;;;5005947;28;20221;-92
2023/06/03 05:25:25;;;;;;;38.47;9.97;;;19.70;52.70;;;;;;5009069;28;20209;-93
2023/06/03 05:27:52;;;;;;;35.77;10.13;;;19.70;53.10;;;;;;5011202;28;20227;-92
2023/06/03 05:30:19;;;;;;;43.20;11.03;;;19.70;53.20;;;;;;5010434;28;20649;-92
2023/06/03 05:32:46;;;;;;;38.50;10.73;;;19.80;53.40;;;;;;5009480;28;20213;-92
2023/06/03 05:35:13;;;;;;;43.40;10.30;;;19.80;53.50;;;;;;5009324;28;20216;-89
2023/06/03 05:37:40;;;;;;;34.60;9.47;;;19.80;53.60;;;;;;5010373;28;20197;-93
2023/06/03 05:40:09;;;;;;;37.77;9.37;;;19.70;53.30;;;;;;5008426;28;20232;-92
2023/06/03 05:42:37;;;;;;;35.80;8.93;;;19.70;53.10;;;;;;5010205;28;20229;-96
2023/06/03 05:45:05;;;;;;;38.83;9.97;;;19.70;53.10;;;;;;5005217;28;20217;-89
2023/06/03 05:47:32;;;;;;;49.43;10.50;;;19.70;52.90;;;;;;5005689;28;20209;-90
2023/06/03 05:49:59;;;;;;;30.50;7.87;;;19.70;52.90;;;;;;4997918;28;20213;-87
2023/06/03 05:52:27;;;;;;;30.47;8.27;;;19.70;52.90;;;;;;5000595;28;20201;-86
2023/06/03 05:54:54;;;;;;;34.17;8.47;;;19.70;52.90;;;;;;5006398;28;20575;-86
2023/06/03 05:57:22;;;;;;;46.00;9.00;;;19.70;53.20;;;;;;5007866;28;20205;-89
2023/06/03 05:59:50;;;;;;;36.27;8.07;;;19.70;53.00;;;;;;5008293;28;20296;-86
2023/06/03 06:02:18;;;;;;;36.63;7.67;;;19.70;53.10;;;;;;5008028;28;20193;-87
2023/06/03 06:04:45;;;;;;;36.57;8.07;;;19.70;53.10;;;;;;5011988;28;20240;-87
2023/06/03 06:07:12;;;;;;;36.83;8.07;;;19.70;53.20;;;;;;5014658;28;20185;-87
2023/06/03 06:09:40;;;;;;;36.27;8.30;;;19.80;53.30;;;;;;5014528;28;20213;-86
2023/06/03 06:12:07;;;;;;;48.73;8.53;;;19.80;53.40;;;;;;5012767;28;20210;-86
2023/06/03 06:14:35;;;;;;;50.53;8.43;;;19.80;53.50;;;;;;5012470;28;20215;-91
2023/06/03 06:17:02;;;;;;;34.27;8.13;;;19.80;54.10;;;;;;5012507;28;20219;-86
2023/06/03 06:19:29;;;;;;;34.33;7.40;;;19.90;53.60;;;;;;5012832;28;20202;-85
2023/06/03 06:21:56;;;;;;;32.00;7.50;;;19.90;53.50;;;;;;5013106;28;20205;-87
2023/06/03 06:24:23;;;;;;;33.27;7.70;;;20.00;53.60;;;;;;5013433;28;20228;-86
2023/06/03 06:26:50;;;;;;;38.77;7.77;;;20.00;53.50;;;;;;5013789;28;20211;-94
2023/06/03 06:29:17;;;;;;;43.43;8.60;;;20.00;53.50;;;;;;5014787;28;20204;-86
2023/06/03 06:31:46;;;;;;;47.00;8.70;;;20.10;53.50;;;;;;5014031;28;20706;-85
2023/06/03 06:34:16;;;;;;;38.70;8.57;;;20.10;53.50;;;;;;5013110;28;20206;-86
2023/06/03 06:36:47;;;;;;;65.93;10.33;;;20.10;53.50;;;;;;5012101;28;20208;-89
2023/06/03 06:39:45;;;;;;;43.93;8.43;;;20.10;53.50;;;;;;5015182;28;20752;-92
2023/06/03 06:42:13;;;;;;;47.60;9.60;;;20.20;53.60;;;;;;5013091;28;20210;-85
2023/06/03 06:44:46;;;;;;;41.47;9.40;;;20.20;53.50;;;;;;4994795;28;20218;-86
2023/06/03 06:47:17;;;;;;;38.67;8.50;;;20.30;53.60;;;;;;4994866;28;20206;-86
2023/06/03 06:49:44;;;;;;;39.93;7.97;;;20.20;53.50;;;;;;4994598;28;20206;-89
2023/06/03 06:52:13;;;;;;;37.40;8.30;;;20.30;54.10;;;;;;4994973;28;20210;-86
2023/06/03 06:54:40;;;;;;;43.23;8.23;;;20.30;53.40;;;;;;4995221;28;20292;-88
2023/06/03 06:57:06;;;;;;;36.03;7.93;;;20.30;53.40;;;;;;4994356;28;20244;-86
2023/06/03 06:59:34;;;;;;;37.37;7.43;;;20.30;53.40;;;;;;4994543;28;20222;-88
2023/06/03 07:02:01;;;;;;;39.50;8.03;;;20.30;53.40;;;;;;4994598;28;20191;-86
2023/06/03 07:04:29;;;;;;;37.30;7.80;;;20.30;53.30;;;;;;4995383;28;20222;-90
2023/06/03 07:06:56;;;;;;;79.13;11.63;;;20.30;53.40;;;;;;4995700;28;20204;-87
2023/06/03 07:09:23;;;;;;;41.23;8.93;;;20.40;53.60;;;;;;5012799;28;20700;-88
2023/06/03 07:11:50;;;;;;;37.80;8.07;;;20.40;53.50;;;;;;5014040;28;20930;-86
2023/06/03 07:14:19;;;;;;;40.90;8.17;;;20.40;53.50;;;;;;5014442;28;20207;-85
2023/06/03 07:16:49;;;;;;;58.23;9.60;;;20.40;53.40;;;;;;5009115;28;20475;-86
2023/06/03 07:19:16;;;;;;;37.53;8.20;;;20.40;53.40;;;;;;5010809;28;20214;-86
2023/06/03 07:21:44;;;;;;;43.40;8.40;;;20.40;53.40;;;;;;5010329;28;20232;-88
2023/06/03 07:24:12;;;;;;;48.87;8.67;;;20.40;53.40;;;;;;5011278;28;20217;-89
2023/06/03 07:26:40;;;;;;;39.73;7.70;;;20.40;53.40;;;;;;5011639;28;20205;-87
2023/06/03 07:29:07;;;;;;;31.67;6.93;;;20.50;53.50;;;;;;5006831;28;20276;-86
2023/06/03 07:31:37;;;;;;;44.20;8.47;;;20.40;53.40;;;;;;5012840;28;20213;-86
2023/06/03 07:34:05;;;;;;;36.77;7.73;;;20.50;53.50;;;;;;5012813;28;20236;-85
2023/06/03 07:36:33;;;;;;;42.23;7.83;;;20.50;53.50;;;;;;5014453;28;20202;-86
2023/06/03 07:39:08;;;;;;;51.63;8.90;;;20.50;53.50;;;;;;5017675;28;20225;-91
2023/06/03 07:41:40;;;;;;;53.97;9.00;;;20.50;53.50;;;;;;5026472;28;20195;-88
2023/06/03 07:44:09;;;;;;;52.33;8.77;;;20.50;53.50;;;;;;5021083;28;20772;-86
2023/06/03 07:46:42;;;;;;;37.23;7.17;;;20.50;53.50;;;;;;5012046;28;20900;-86
2023/06/03 07:49:10;;;;;;;37.90;7.73;;;20.50;53.50;;;;;;5014231;28;20198;-85
2023/06/03 07:51:45;;;;;;;32.20;7.67;;;20.50;53.50;;;;;;5011585;28;20209;-93
2023/06/03 07:54:15;;;;;;;40.57;9.03;;;20.60;53.90;;;;;;5015072;28;20276;-86
2023/06/03 07:56:42;;;;;;;34.70;9.00;;;20.60;53.80;;;;;;5013412;28;20193;-87
2023/06/03 07:59:10;;;;;;;36.53;7.53;;;20.60;53.70;;;;;;5012940;28;20609;-85
2023/06/03 08:01:38;;;;;;;33.23;7.40;;;20.60;53.60;;;;;;5012325;28;20210;-88
2023/06/03 08:04:06;;;;;;;34.83;7.67;;;20.60;54.30;;;;;;5012711;28;20304;-87
2023/06/03 08:06:36;;;;;;;34.93;7.33;;;20.70;53.70;;;;;;5012192;28;20201;-86
2023/06/03 08:09:03;;;;;;;49.80;9.87;;;20.70;53.70;;;;;;5010240;28;20198;-86
2023/06/03 08:11:36;;;;;;;41.43;8.90;;;20.70;53.80;;;;;;5008403;28;20201;-86
2023/06/03 08:14:02;;;;;;;36.13;7.97;;;20.70;53.80;;;;;;5002353;28;20229;-86
2023/06/03 08:16:29;;;;;;;37.50;8.07;;;20.70;53.80;;;;;;5009524;28;20934;-86
2023/06/03 08:18:57;;;;;;;34.33;7.50;;;20.80;53.80;;;;;;5010003;28;20228;-87
2023/06/03 08:21:29;;;;;;;38.07;8.17;;;20.80;53.80;;;;;;5010861;28;20207;-86
2023/06/03 08:23:56;;;;;;;42.23;8.27;;;20.70;53.80;;;;;;5009173;28;20323;-86
2023/06/03 08:26:24;;;;;;;36.50;7.77;;;20.80;53.80;;;;;;5010478;28;20210;-89
2023/06/03 08:28:52;;;;;;;36.97;7.80;;;20.80;53.90;;;;;;5012423;28;20190;-86
2023/06/03 08:31:19;;;;;;;36.23;7.70;;;20.90;54.00;;;;;;5011423;28;20209;-85
2023/06/03 08:33:48;;;;;;;32.60;7.10;;;20.90;54.00;;;;;;5010223;28;20205;-85
2023/06/03 08:36:16;;;;;;;46.73;8.40;;;20.90;54.10;;;;;;5009754;28;20588;-85
2023/06/03 08:38:43;;;;;;;39.33;7.63;;;20.90;54.00;;;;;;5007166;28;20257;-86
2023/06/03 08:41:11;;;;;;;41.23;7.97;;;20.90;54.00;;;;;;5009036;28;20202;-85
2023/06/03 08:43:45;;;;;;;38.50;7.10;;;21.00;54.10;;;;;;4999309;28;20237;-86
2023/06/03 08:46:22;;;;;;;92.70;12.00;;;21.00;54.20;;;;;;5001260;28;20204;-86
2023/06/03 08:48:57;;;;;;;31.77;7.27;;;21.00;54.20;;;;;;5003281;28;20668;-86
2023/06/03 08:51:24;;;;;;;75.23;10.17;;;21.00;54.20;;;;;;5005752;28;20291;-85
2023/06/03 08:53:52;;;;;;;38.70;7.37;;;21.10;54.30;;;;;;5007726;28;20200;-86
2023/06/03 08:56:20;;;;;;;34.03;7.30;;;21.10;54.30;;;;;;5009281;28;20209;-87
2023/06/03 08:58:50;;;;;;;36.60;7.33;;;21.10;54.30;;;;;;5009927;28;20220;-85
2023/06/03 09:01:20;;;;;;;37.03;7.87;;;21.20;54.40;;;;;;5009285;28;20201;-87
2023/06/03 09:03:48;;;;;;;39.73;7.60;;;21.20;54.40;;;;;;5009908;28;20222;-88
2023/06/03 09:06:15;;;;;;;38.77;7.40;;;21.30;54.40;;;;;;5010956;28;20606;-87
2023/06/03 09:08:43;;;;;;;35.77;7.07;;;21.30;54.50;;;;;;5011625;28;20207;-85
2023/06/03 09:11:12;;;;;;;36.70;7.13;;;21.30;54.50;;;;;;5013764;28;20212;-91
2023/06/03 09:13:40;;;;;;;39.90;7.70;;;21.20;54.40;;;;;;5012285;28;20662;-86
2023/06/03 09:16:09;;;;;;;40.17;7.33;;;21.30;54.50;;;;;;5008974;28;20270;-87
2023/06/03 09:18:37;;;;;;;37.43;7.17;;;21.40;54.60;;;;;;5008938;28;20266;-86
2023/06/03 09:21:05;;;;;;;47.37;7.87;;;21.40;54.60;;;;;;5008545;28;20198;-86
2023/06/03 09:23:33;;;;;;;41.43;7.97;;;21.40;54.50;;;;;;5008372;28;20670;-85
2023/06/03 09:26:00;;;;;;;49.23;8.07;;;21.50;54.60;;;;;;5008734;28;20333;-87
2023/06/03 09:28:27;;;;;;;44.17;7.53;;;21.50;54.60;;;;;;5008420;28;20670;-85
2023/06/03 09:30:54;;;;;;;48.67;8.07;;;21.50;55.30;;;;;;5008736;28;20205;-86
2023/06/03 09:33:22;;;;;;;37.90;7.50;;;21.50;54.60;;;;;;5007664;28;20210;-86
2023/06/03 09:36:07;;;;;;;45.73;7.80;;;21.60;54.70;;;;;;5007319;28;20683;-86
2023/06/03 09:38:47;;;;;;;34.33;6.57;;;21.60;54.70;;;;;;5005542;28;20678;-86
2023/06/03 09:41:15;;;;;;;29.93;6.03;;;21.70;54.80;;;;;;5007017;28;20251;-88
2023/06/03 09:43:52;;;;;;;46.10;7.60;;;21.70;54.70;;;;;;5006465;28;20557;-86
2023/06/03 09:46:20;;;;;;;54.83;8.43;;;21.70;54.80;;;;;;5004667;28;20212;-85
2023/06/03 09:48:47;;;;;;;38.83;6.27;;;21.80;54.80;;;;;;5006609;28;20205;-86
2023/06/03 09:51:15;;;;;;;48.63;7.73;;;21.80;54.80;;;;;;5007680;28;20917;-85
2023/06/03 09:53:42;;;;;;;52.17;7.73;;;21.90;54.90;;;;;;5005314;28;20196;-85
2023/06/03 09:56:23;;;;;;;28.20;5.70;;;21.90;54.90;;;;;;4998114;28;20205;-89
2023/06/03 09:58:52;;;;;;;35.90;7.03;;;22.00;55.00;;;;;;5008879;28;20205;-85
2023/06/03 10:01:30;;;;;;;36.10;6.83;;;22.00;54.90;;;;;;5007777;28;20197;-85
2023/06/03 10:03:58;;;;;;;53.13;8.27;;;22.00;55.00;;;;;;5007570;28;20710;-87
2023/06/03 10:06:27;;;;;;;42.57;7.23;;;22.10;55.00;;;;;;5008871;28;20207;-85
2023/06/03 10:08:55;;;;;;;54.43;8.27;;;22.10;54.90;;;;;;5006637;28;20300;-85
2023/06/03 10:11:23;;;;;;;37.00;6.83;;;22.10;54.90;;;;;;5009293;28;20205;-86
2023/06/03 10:14:04;;;;;;;53.27;8.63;;;22.20;54.90;;;;;;5006678;28;20658;-86
2023/06/03 10:16:32;;;;;;;33.63;7.20;;;22.20;55.10;;;;;;5007278;28;20221;-86
2023/06/03 10:18:59;;;;;;;53.57;7.97;;;22.20;54.30;;;;;;5006332;28;20289;-88
2023/06/03 10:21:30;;;;;;;37.50;7.03;;;22.30;54.50;;;;;;5007949;28;20216;-88
2023/06/03 10:24:01;;;;;;;36.23;6.67;;;22.30;55.10;;;;;;5009845;28;20205;-86
2023/06/03 10:26:30;;;;;;;56.57;8.43;;;22.40;55.20;;;;;;5007458;28;20292;-87
2023/06/03 10:28:59;;;;;;;37.67;6.53;;;22.40;54.60;;;;;;5008147;28;20198;-87
2023/06/03 10:31:28;;;;;;;45.03;7.57;;;22.50;54.70;;;;;;5008170;28;20896;-87
2023/06/03 10:33:57;;;;;;;33.97;6.87;;;22.50;54.70;;;;;;5007885;28;20224;-88
2023/06/03 10:36:26;;;;;;;40.50;6.90;;;22.50;54.70;;;;;;5012295;28;20302;-87
2023/06/03 10:38:56;;;;;;;37.13;6.73;;;22.50;54.70;;;;;;5013402;28;20263;-88
2023/06/03 10:41:28;;;;;;;42.60;7.27;;;22.60;54.70;;;;;;5011267;28;20200;-89
2023/06/03 10:43:55;;;;;;;30.93;6.03;;;22.60;54.70;;;;;;5011777;28;20201;-88
2023/06/03 10:46:27;;;;;;;36.23;6.20;;;22.60;54.70;;;;;;5010822;28;20272;-87
2023/06/03 10:48:57;;;;;;;26.47;5.63;;;22.60;54.80;;;;;;5007191;28;20216;-87
2023/06/03 10:51:48;;;;;;;51.53;8.17;;;22.70;54.90;;;;;;5010048;28;20296;-87
2023/06/03 10:54:30;;;;;;;34.60;6.47;;;22.70;55.40;;;;;;5010615;28;20204;-88
2023/06/03 10:57:05;;;;;;;41.77;7.27;;;22.80;54.90;;;;;;5016045;28;20200;-87
2023/06/03 10:59:45;;;;;;;28.17;6.03;;;22.80;54.80;;;;;;5019373;28;20211;-87
2023/06/03 11:02:16;;;;;;;37.93;7.30;;;22.80;54.90;;;;;;5017998;28;20244;-87
2023/06/03 11:04:46;;;;;;;32.90;6.33;;;22.80;54.80;;;;;;5018637;28;20233;-88
2023/06/03 11:07:45;;;;;;;37.33;6.43;;;22.90;54.90;;;;;;5012728;28;20210;-87
2023/06/03 11:10:41;;;;;;;39.27;6.97;;;22.90;54.90;;;;;;5031934;28;20249;-88
2023/06/03 11:13:10;;;;;;;33.93;6.27;;;23.00;54.90;;;;;;5028427;28;20292;-87
2023/06/03 11:16:00;;;;;;;33.83;6.13;;;23.10;54.90;;;;;;5018077;28;20672;-87
2023/06/03 11:18:36;;;;;;;25.77;5.83;;;23.00;54.90;;;;;;5016035;28;20190;-87
2023/06/03 11:21:03;;;;;;;24.10;5.33;;;23.10;54.90;;;;;;5014603;28;20241;-87
2023/06/03 11:23:44;;;;;;;27.83;5.90;;;23.10;55.40;;;;;;5016207;28;20292;-87
2023/06/03 11:26:34;;;;;;;31.67;5.93;;;23.20;55.00;;;;;;5013788;28;20256;-87
2023/06/03 11:29:03;;;;;;;28.13;5.77;;;23.20;55.00;;;;;;5013400;28;20236;-87
2023/06/03 11:31:31;;;;;;;35.80;6.37;;;23.20;54.90;;;;;;5011744;28;20779;-86
2023/06/03 11:34:23;;;;;;;35.40;6.43;;;23.30;54.90;;;;;;5012051;28;20974;-87
2023/06/03 11:36:51;;;;;;;31.83;6.50;;;23.30;55.00;;;;;;5006696;28;20206;-87
2023/06/03 11:39:20;;;;;;;36.77;6.03;;;23.30;54.90;;;;;;5012392;28;20190;-87
2023/06/03 11:42:08;;;;;;;42.10;7.17;;;23.30;54.80;;;;;;5012082;28;20205;-87
2023/06/03 11:44:37;;;;;;;30.63;6.03;;;23.40;55.00;;;;;;5011973;28;20213;-86
2023/06/03 11:47:05;;;;;;;38.93;6.43;;;23.40;54.90;;;;;;5011437;28;20305;-87
2023/06/03 11:49:35;;;;;;;26.57;5.43;;;23.50;54.90;;;;;;5011830;28;20623;-87
2023/06/03 11:52:05;;;;;;;35.03;6.30;;;23.50;54.90;;;;;;5010697;28;20208;-86
2023/06/03 11:54:33;;;;;;;32.37;6.10;;;23.50;54.90;;;;;;5011450;28;20208;-86
2023/06/03 11:57:02;;;;;;;48.67;7.33;;;23.60;55.00;;;;;;5010446;28;20615;-87
2023/06/03 11:59:34;;;;;;;33.90;6.30;;;23.60;55.00;;;;;;5010841;28;20311;-88
2023/06/03 12:02:03;;;;;;;34.87;6.40;;;23.60;55.00;;;;;;5011468;28;20638;-86
2023/06/03 12:04:31;;;;;;;40.17;6.70;;;23.60;54.90;;;;;;5011899;28;20194;-88
2023/06/03 12:06:58;;;;;;;30.17;5.90;;;23.70;55.00;;;;;;5015299;28;20205;-88
2023/06/03 12:09:26;;;;;;;37.90;6.27;;;23.70;55.00;;;;;;5014653;28;20202;-87
2023/06/03 12:11:55;;;;;;;26.03;5.53;;;23.70;54.90;;;;;;5016357;28;20190;-89
2023/06/03 12:14:27;;;;;;;44.83;7.07;;;23.70;54.90;;;;;;5014326;28;20614;-87
2023/06/03 12:16:57;;;;;;;22.53;5.30;;;23.80;55.00;;;;;;5016590;28;20216;-87
2023/06/03 12:19:24;;;;;;;34.63;6.30;;;23.80;54.90;;;;;;5023452;28;20244;-87
2023/06/03 12:22:00;;;;;;;32.17;5.90;;;23.90;55.00;;;;;;5015445;28;20201;-87
2023/06/03 12:24:32;;;;;;;40.63;6.50;;;23.90;55.00;;;;;;5017837;28;20231;-87
2023/06/03 12:27:18;;;;;;;37.33;6.30;;;24.00;55.00;;;;;;5015901;28;20213;-89
2023/06/03 12:29:47;;;;;;;28.90;5.60;;;24.00;55.00;;;;;;5022207;28;20213;-87
2023/06/03 12:32:17;;;;;;;36.63;6.17;;;24.00;54.90;;;;;;5018082;28;20247;-89
2023/06/03 12:34:45;;;;;;;24.70;5.50;;;24.00;54.90;;;;;;5017582;28;20570;-89
2023/06/03 12:37:29;;;;;;;25.83;5.37;;;24.10;54.90;;;;;;5017200;28;20281;-87
2023/06/03 12:40:03;;;;;;;25.23;5.43;;;24.10;54.90;;;;;;5017527;28;20205;-88
2023/06/03 12:42:38;;;;;;;22.27;5.27;;;24.10;54.90;;;;;;5016828;28;20578;-87
2023/06/03 12:45:06;;;;;;;29.23;5.83;;;24.20;54.90;;;;;;5017038;28;20304;-87
2023/06/03 12:47:45;;;;;;;46.60;7.03;;;24.20;54.90;;;;;;5016155;28;20194;-88